createdAt,value
2018-05-23T00:00:26.501Z,944.97
2018-05-23T00:01:26.417Z,944.95
2018-05-23T00:02:26.364Z,945.01
2018-05-23T00:03:26.239Z,944.99
2018-05-23T00:04:26.149Z,945.02
2018-05-23T00:05:27.546Z,945.01
2018-05-23T00:06:25.974Z,945.05
2018-05-23T00:07:25.919Z,945.05
2018-05-23T00:08:25.798Z,945.03
2018-05-23T00:09:25.709Z,945.04
2018-05-23T00:10:25.621Z,945.06
2018-05-23T00:11:25.654Z,945.02
2018-05-23T00:12:25.478Z,945.05
2018-05-23T00:13:25.358Z,945.00
2018-05-23T00:14:25.267Z,945.00
2018-05-23T00:15:25.182Z,944.99
2018-05-23T00:16:25.092Z,944.98
2018-05-23T00:17:25.031Z,944.96
2018-05-23T00:18:24.920Z,945.00
2018-05-23T00:19:24.826Z,945.01
2018-05-23T00:20:24.740Z,945.04
2018-05-23T00:21:24.657Z,945.03
2018-05-23T00:22:24.593Z,945.01
2018-05-23T00:23:24.471Z,945.03
2018-05-23T00:24:25.102Z,945.04
2018-05-23T00:25:24.301Z,945.07
2018-05-23T00:26:24.208Z,945.08
2018-05-23T00:27:24.151Z,945.06
2018-05-23T00:28:24.032Z,945.07
2018-05-23T00:29:23.945Z,945.06
2018-05-23T00:30:23.855Z,945.06
2018-05-23T00:31:23.779Z,945.03
2018-05-23T00:32:23.714Z,945.05
2018-05-23T00:33:23.595Z,945.06
2018-05-23T00:34:23.503Z,945.09
2018-05-23T00:35:23.413Z,945.04
2018-05-23T00:36:23.326Z,945.03
2018-05-23T00:37:23.272Z,945.09
2018-05-23T00:38:23.160Z,945.07
2018-05-23T00:39:23.059Z,945.05
2018-05-23T00:40:22.973Z,945.02
2018-05-23T00:41:22.884Z,945.06
2018-05-23T00:42:22.824Z,945.07
2018-05-23T00:43:22.708Z,945.02
2018-05-23T00:44:22.617Z,945.02
2018-05-23T00:45:22.532Z,945.03
2018-05-23T00:46:22.441Z,945.06
2018-05-23T00:47:22.384Z,945.02
2018-05-23T00:48:22.290Z,944.99
2018-05-23T00:49:22.176Z,945.02
2018-05-23T00:50:22.095Z,945.00
2018-05-23T00:51:22.000Z,945.00
2018-05-23T00:52:21.942Z,945.07
2018-05-23T00:53:21.822Z,944.99
2018-05-23T00:54:21.731Z,945.05
2018-05-23T00:55:21.641Z,945.06
2018-05-23T00:56:21.552Z,945.02
2018-05-23T00:57:21.497Z,945.07
2018-05-23T00:58:21.379Z,945.03
2018-05-23T00:59:21.299Z,945.01
2018-05-23T01:00:21.291Z,945.08
2018-05-23T01:01:21.109Z,945.07
2018-05-23T01:02:21.052Z,945.04
2018-05-23T01:03:20.931Z,945.01
2018-05-23T01:04:20.841Z,945.03
2018-05-23T01:05:20.754Z,945.04
2018-05-23T01:06:20.662Z,945.06
2018-05-23T01:07:20.671Z,945.06
2018-05-23T01:08:20.519Z,945.10
2018-05-23T01:09:21.158Z,945.12
2018-05-23T01:10:20.305Z,945.11
2018-05-23T01:11:20.216Z,945.09
2018-05-23T01:12:20.133Z,945.11
2018-05-23T01:13:20.071Z,945.13
2018-05-23T01:14:20.042Z,945.13
2018-05-23T01:15:19.860Z,945.13
2018-05-23T01:16:20.620Z,945.15
2018-05-23T01:17:19.688Z,945.11
2018-05-23T01:18:19.625Z,945.10
2018-05-23T01:19:19.516Z,945.08
2018-05-23T01:20:19.415Z,945.12
2018-05-23T01:21:19.598Z,945.10
2018-05-23T01:22:20.066Z,945.07
2018-05-23T01:23:19.175Z,945.09
2018-05-23T01:24:19.059Z,945.07
2018-05-23T01:25:18.965Z,945.10
2018-05-23T01:26:18.876Z,945.07
2018-05-23T01:27:18.787Z,945.15
2018-05-23T01:28:18.816Z,945.12
2018-05-23T01:29:18.610Z,945.10
2018-05-23T01:30:18.518Z,945.11
2018-05-23T01:31:18.429Z,945.12
2018-05-23T01:32:18.339Z,945.14
2018-05-23T01:33:18.280Z,945.14
2018-05-23T01:34:18.158Z,945.14
2018-05-23T01:35:18.172Z,945.10
2018-05-23T01:36:17.978Z,945.14
2018-05-23T01:37:17.888Z,945.17
2018-05-23T01:38:17.826Z,945.11
2018-05-23T01:39:17.713Z,945.12
2018-05-23T01:40:17.630Z,945.10
2018-05-23T01:41:17.530Z,945.14
2018-05-23T01:42:17.530Z,945.11
2018-05-23T01:43:17.379Z,945.15
2018-05-23T01:44:17.259Z,945.12
2018-05-23T01:45:17.169Z,945.12
2018-05-23T01:46:17.084Z,945.17
2018-05-23T01:47:16.986Z,945.11
2018-05-23T01:48:16.931Z,945.15
2018-05-23T01:49:16.905Z,945.15
2018-05-23T01:50:16.723Z,945.17
2018-05-23T01:51:16.628Z,945.17
2018-05-23T01:52:16.539Z,945.17
2018-05-23T01:53:16.479Z,945.17
2018-05-23T01:54:16.356Z,945.19
2018-05-23T01:55:16.265Z,945.15
2018-05-23T01:56:16.270Z,945.18
2018-05-23T01:57:16.088Z,945.17
2018-05-23T01:58:16.032Z,945.20
2018-05-23T01:59:15.902Z,945.21
2018-05-23T02:00:15.815Z,945.17
2018-05-23T02:01:15.725Z,945.18
2018-05-23T02:02:15.633Z,945.18
2018-05-23T02:03:15.665Z,945.20
2018-05-23T02:04:15.449Z,945.19
2018-05-23T02:05:15.364Z,945.16
2018-05-23T02:06:15.269Z,945.19
2018-05-23T02:07:15.179Z,945.17
2018-05-23T02:08:15.127Z,945.21
2018-05-23T02:09:15.092Z,945.19
2018-05-23T02:10:14.906Z,945.21
2018-05-23T02:11:14.816Z,945.20
2018-05-23T02:12:14.727Z,945.21
2018-05-23T02:13:14.669Z,945.19
2018-05-23T02:14:14.543Z,945.21
2018-05-23T02:15:14.454Z,945.19
2018-05-23T02:16:14.364Z,945.23
2018-05-23T02:17:15.080Z,945.22
2018-05-23T02:18:14.210Z,945.20
2018-05-23T02:19:14.636Z,945.24
2018-05-23T02:20:14.640Z,945.21
2018-05-23T02:21:13.906Z,945.22
2018-05-23T02:22:13.815Z,945.22
2018-05-23T02:23:13.824Z,945.20
2018-05-23T02:24:13.666Z,945.19
2018-05-23T02:25:13.542Z,945.24
2018-05-23T02:26:13.453Z,945.22
2018-05-23T02:27:13.362Z,945.21
2018-05-23T02:28:13.272Z,945.21
2018-05-23T02:29:13.211Z,945.21
2018-05-23T02:30:13.088Z,945.25
2018-05-23T02:31:12.997Z,945.24
2018-05-23T02:32:12.906Z,945.21
2018-05-23T02:33:12.815Z,945.24
2018-05-23T02:34:12.758Z,945.25
2018-05-23T02:35:12.633Z,945.25
2018-05-23T02:36:12.541Z,945.29
2018-05-23T02:37:12.452Z,945.28
2018-05-23T02:38:12.361Z,945.23
2018-05-23T02:39:12.384Z,945.24
2018-05-23T02:40:12.179Z,945.27
2018-05-23T02:41:12.089Z,945.28
2018-05-23T02:42:11.996Z,945.26
2018-05-23T02:43:11.902Z,945.28
2018-05-23T02:44:11.847Z,945.28
2018-05-23T02:45:11.725Z,945.30
2018-05-23T02:46:11.629Z,945.31
2018-05-23T02:47:12.117Z,945.35
2018-05-23T02:48:11.450Z,945.33
2018-05-23T02:49:11.389Z,945.35
2018-05-23T02:50:11.265Z,945.35
2018-05-23T02:51:11.174Z,945.33
2018-05-23T02:52:11.635Z,945.35
2018-05-23T02:53:10.995Z,945.34
2018-05-23T02:54:10.947Z,945.34
2018-05-23T02:55:10.806Z,945.35
2018-05-23T02:56:10.717Z,945.32
2018-05-23T02:57:10.629Z,945.33
2018-05-23T02:58:10.658Z,945.33
2018-05-23T02:59:10.485Z,945.32
2018-05-23T03:00:10.355Z,945.34
2018-05-23T03:01:10.259Z,945.37
2018-05-23T03:02:10.168Z,945.33
2018-05-23T03:03:10.592Z,945.37
2018-05-23T03:04:10.029Z,945.35
2018-05-23T03:05:09.896Z,945.35
2018-05-23T03:06:09.804Z,945.35
2018-05-23T03:07:09.710Z,945.36
2018-05-23T03:08:09.630Z,945.35
2018-05-23T03:09:09.562Z,945.34
2018-05-23T03:10:09.439Z,945.33
2018-05-23T03:11:09.351Z,945.41
2018-05-23T03:12:10.154Z,945.41
2018-05-23T03:13:10.151Z,945.43
2018-05-23T03:14:09.116Z,945.44
2018-05-23T03:15:08.979Z,945.44
2018-05-23T03:16:08.889Z,945.45
2018-05-23T03:17:08.799Z,945.47
2018-05-23T03:18:08.710Z,945.52
2018-05-23T03:19:08.645Z,945.51
2018-05-23T03:20:08.526Z,945.58
2018-05-23T03:21:08.432Z,945.60
2018-05-23T03:22:08.430Z,945.63
2018-05-23T03:23:08.250Z,945.65
2018-05-23T03:24:08.192Z,945.67
2018-05-23T03:25:08.067Z,945.65
2018-05-23T03:26:07.975Z,945.66
2018-05-23T03:27:07.884Z,945.67
2018-05-23T03:28:07.797Z,945.64
2018-05-23T03:29:07.704Z,945.65
2018-05-23T03:30:07.643Z,945.68
2018-05-23T03:31:07.520Z,945.62
2018-05-23T03:32:07.425Z,945.63
2018-05-23T03:33:07.337Z,945.62
2018-05-23T03:34:07.247Z,945.66
2018-05-23T03:35:07.185Z,945.67
2018-05-23T03:36:07.062Z,945.72
2018-05-23T03:37:06.970Z,945.74
2018-05-23T03:38:06.878Z,945.74
2018-05-23T03:39:06.791Z,945.77
2018-05-23T03:40:07.601Z,945.78
2018-05-23T03:41:06.604Z,945.78
2018-05-23T03:42:06.514Z,945.82
2018-05-23T03:43:06.423Z,945.84
2018-05-23T03:44:06.330Z,945.82
2018-05-23T03:45:06.280Z,945.83
2018-05-23T03:46:06.145Z,945.81
2018-05-23T03:47:06.053Z,945.82
2018-05-23T03:48:05.963Z,945.86
2018-05-23T03:49:05.870Z,945.84
2018-05-23T03:50:05.808Z,945.88
2018-05-23T03:51:05.685Z,945.83
2018-05-23T03:52:05.601Z,945.84
2018-05-23T03:53:05.506Z,945.86
2018-05-23T03:54:05.412Z,945.84
2018-05-23T03:55:05.356Z,945.82
2018-05-23T03:56:05.229Z,945.81
2018-05-23T03:57:06.104Z,945.79
2018-05-23T03:58:05.047Z,945.81
2018-05-23T03:59:04.954Z,945.81
2018-05-23T04:00:04.896Z,945.80
2018-05-23T04:01:04.863Z,945.78
2018-05-23T04:02:04.680Z,945.82
2018-05-23T04:03:04.588Z,945.84
2018-05-23T04:04:04.494Z,945.83
2018-05-23T04:05:04.434Z,945.83
2018-05-23T04:06:04.311Z,945.85
2018-05-23T04:07:04.220Z,945.83
2018-05-23T04:08:04.129Z,945.80
2018-05-23T04:09:04.038Z,945.85
2018-05-23T04:10:04.320Z,945.88
2018-05-23T04:11:03.885Z,945.90
2018-05-23T04:12:03.762Z,945.92
2018-05-23T04:13:03.669Z,945.90
2018-05-23T04:14:03.577Z,945.91
2018-05-23T04:15:03.487Z,945.94
2018-05-23T04:16:03.507Z,945.93
2018-05-23T04:17:03.308Z,945.97
2018-05-23T04:18:03.213Z,945.97
2018-05-23T04:19:03.120Z,945.97
2018-05-23T04:20:03.030Z,945.92
2018-05-23T04:21:02.972Z,945.96
2018-05-23T04:22:02.845Z,945.97
2018-05-23T04:23:02.850Z,945.99
2018-05-23T04:24:02.728Z,946.00
2018-05-23T04:25:02.574Z,946.01
2018-05-23T04:26:03.113Z,946.02
2018-05-23T04:27:02.393Z,946.01
2018-05-23T04:28:02.300Z,945.96
2018-05-23T04:29:02.215Z,946.00
2018-05-23T04:30:02.215Z,945.99
2018-05-23T04:31:02.058Z,946.03
2018-05-23T04:32:01.934Z,946.03
2018-05-23T04:33:01.842Z,946.07
2018-05-23T04:34:01.750Z,946.09
2018-05-23T04:35:01.663Z,946.09
2018-05-23T04:36:01.603Z,946.12
2018-05-23T04:37:01.600Z,946.16
2018-05-23T04:38:01.387Z,946.19
2018-05-23T04:39:01.298Z,946.19
2018-05-23T04:40:01.212Z,946.14
2018-05-23T04:41:01.118Z,946.13
2018-05-23T04:42:01.056Z,946.15
2018-05-23T04:43:00.934Z,946.16
2018-05-23T04:44:00.935Z,946.14
2018-05-23T04:45:00.754Z,946.15
2018-05-23T04:46:00.682Z,946.19
2018-05-23T04:47:00.600Z,946.20
2018-05-23T04:48:00.481Z,946.19
2018-05-23T04:49:00.391Z,946.20
2018-05-23T04:50:02.118Z,946.21
2018-05-23T04:51:01.169Z,946.21
2018-05-23T04:52:00.146Z,946.24
2018-05-23T04:53:00.032Z,946.26
2018-05-23T04:53:59.943Z,946.28
2018-05-23T04:54:59.850Z,946.32
2018-05-23T04:55:59.759Z,946.35
2018-05-23T04:56:59.717Z,946.38
2018-05-23T04:58:00.169Z,946.40
2018-05-23T04:58:59.489Z,946.43
2018-05-23T04:59:59.394Z,946.41
2018-05-23T05:00:59.308Z,946.43
2018-05-23T05:01:59.249Z,946.50
2018-05-23T05:02:59.126Z,946.53
2018-05-23T05:03:59.038Z,946.52
2018-05-23T05:04:58.948Z,946.51
2018-05-23T05:05:58.859Z,946.56
2018-05-23T05:06:58.797Z,946.54
2018-05-23T05:07:58.679Z,946.57
2018-05-23T05:08:58.589Z,946.55
2018-05-23T05:09:58.512Z,946.56
2018-05-23T05:10:58.502Z,946.58
2018-05-23T05:11:58.353Z,946.56
2018-05-23T05:12:59.181Z,946.59
2018-05-23T05:13:58.142Z,946.62
2018-05-23T05:14:58.623Z,946.60
2018-05-23T05:15:57.968Z,946.61
2018-05-23T05:16:57.907Z,946.66
2018-05-23T05:17:57.791Z,946.70
2018-05-23T05:18:57.703Z,946.70
2018-05-23T05:19:57.612Z,946.75
2018-05-23T05:20:57.526Z,946.79
2018-05-23T05:21:57.466Z,946.81
2018-05-23T05:22:57.348Z,946.84
2018-05-23T05:23:57.260Z,946.89
2018-05-23T05:24:57.228Z,946.88
2018-05-23T05:25:57.087Z,946.88
2018-05-23T05:26:57.028Z,946.94
2018-05-23T05:27:57.627Z,946.93
2018-05-23T05:28:56.820Z,946.95
2018-05-23T05:29:56.731Z,946.92
2018-05-23T05:30:56.648Z,946.97
2018-05-23T05:31:56.588Z,946.95
2018-05-23T05:32:56.469Z,946.98
2018-05-23T05:33:56.381Z,947.01
2018-05-23T05:34:56.294Z,947.02
2018-05-23T05:35:56.212Z,947.01
2018-05-23T05:36:56.149Z,947.00
2018-05-23T05:37:56.033Z,947.00
2018-05-23T05:38:56.038Z,947.02
2018-05-23T05:39:55.859Z,947.03
2018-05-23T05:40:55.782Z,947.03
2018-05-23T05:41:55.716Z,947.04
2018-05-23T05:42:55.600Z,947.04
2018-05-23T05:43:55.509Z,947.03
2018-05-23T05:44:55.423Z,947.03
2018-05-23T05:45:55.335Z,947.02
2018-05-23T05:46:55.340Z,947.09
2018-05-23T05:47:55.165Z,947.14
2018-05-23T05:48:55.074Z,947.14
2018-05-23T05:49:54.987Z,947.15
2018-05-23T05:50:54.921Z,947.18
2018-05-23T05:51:54.845Z,947.22
2018-05-23T05:52:54.756Z,947.24
2018-05-23T05:53:54.640Z,947.23
2018-05-23T05:54:54.555Z,947.24
2018-05-23T05:55:54.467Z,947.28
2018-05-23T05:56:54.386Z,947.30
2018-05-23T05:57:54.321Z,947.31
2018-05-23T05:58:54.204Z,947.33
2018-05-23T05:59:54.120Z,947.40
2018-05-23T06:00:54.033Z,947.38
2018-05-23T06:01:53.988Z,947.40
2018-05-23T06:02:53.891Z,947.46
2018-05-23T06:03:53.772Z,947.49
2018-05-23T06:04:53.684Z,947.52
2018-05-23T06:05:53.605Z,947.52
2018-05-23T06:06:53.511Z,947.57
2018-05-23T06:07:53.454Z,947.57
2018-05-23T06:08:54.196Z,947.64
2018-05-23T06:09:53.295Z,947.68
2018-05-23T06:10:53.164Z,947.71
2018-05-23T06:11:53.690Z,947.71
2018-05-23T06:12:53.024Z,947.74
2018-05-23T06:13:53.001Z,947.74
2018-05-23T06:14:52.815Z,947.76
2018-05-23T06:15:52.729Z,947.74
2018-05-23T06:16:52.642Z,947.80
2018-05-23T06:17:52.590Z,947.83
2018-05-23T06:18:52.469Z,947.83
2018-05-23T06:19:52.382Z,947.82
2018-05-23T06:20:52.398Z,947.85
2018-05-23T06:21:52.207Z,947.84
2018-05-23T06:22:52.154Z,947.85
2018-05-23T06:23:52.043Z,947.87
2018-05-23T06:24:52.648Z,947.86
2018-05-23T06:25:51.864Z,947.86
2018-05-23T06:26:51.779Z,947.88
2018-05-23T06:27:51.813Z,947.83
2018-05-23T06:28:51.607Z,947.85
2018-05-23T06:29:51.519Z,947.88
2018-05-23T06:30:51.435Z,947.87
2018-05-23T06:31:51.351Z,947.88
2018-05-23T06:32:51.293Z,947.92
2018-05-23T06:33:51.175Z,947.90
2018-05-23T06:34:51.197Z,947.93
2018-05-23T06:35:51.003Z,947.95
2018-05-23T06:36:50.917Z,948.00
2018-05-23T06:37:50.951Z,947.96
2018-05-23T06:38:50.744Z,948.05
2018-05-23T06:39:50.658Z,948.03
2018-05-23T06:40:50.573Z,948.08
2018-05-23T06:41:50.586Z,947.99
2018-05-23T06:42:50.433Z,947.95
2018-05-23T06:43:50.315Z,947.92
2018-05-23T06:44:50.232Z,947.88
2018-05-23T06:45:50.153Z,947.88
2018-05-23T06:46:50.057Z,947.84
2018-05-23T06:47:50.007Z,947.92
2018-05-23T06:48:49.978Z,947.91
2018-05-23T06:49:49.802Z,947.93
2018-05-23T06:50:49.718Z,947.98
2018-05-23T06:51:49.633Z,948.25
2018-05-23T06:52:49.581Z,947.99
2018-05-23T06:53:51.154Z,948.00
2018-05-23T06:54:49.374Z,948.00
2018-05-23T06:55:49.386Z,948.05
2018-05-23T06:56:49.209Z,948.05
2018-05-23T06:57:49.146Z,948.09
2018-05-23T06:58:49.032Z,948.11
2018-05-23T06:59:48.947Z,948.16
2018-05-23T07:00:48.863Z,948.22
2018-05-23T07:01:48.775Z,948.29
2018-05-23T07:02:48.820Z,948.27
2018-05-23T07:03:48.607Z,948.36
2018-05-23T07:04:48.523Z,948.35
2018-05-23T07:05:49.226Z,948.40
2018-05-23T07:06:49.160Z,948.41
2018-05-23T07:07:48.272Z,948.42
2018-05-23T07:08:48.215Z,948.45
2018-05-23T07:09:48.197Z,948.48
2018-05-23T07:10:48.013Z,948.50
2018-05-23T07:11:47.926Z,948.61
2018-05-23T07:12:47.843Z,948.50
2018-05-23T07:13:47.786Z,948.46
2018-05-23T07:14:47.672Z,948.42
2018-05-23T07:15:47.587Z,948.41
2018-05-23T07:16:47.594Z,948.38
2018-05-23T07:17:47.440Z,948.35
2018-05-23T07:18:47.366Z,948.42
2018-05-23T07:19:47.257Z,948.35
2018-05-23T07:20:47.169Z,948.29
2018-05-23T07:21:48.218Z,948.30
2018-05-23T07:22:46.995Z,948.29
2018-05-23T07:23:47.331Z,948.34
2018-05-23T07:24:46.826Z,948.32
2018-05-23T07:25:46.750Z,948.36
2018-05-23T07:26:46.657Z,948.56
2018-05-23T07:27:46.571Z,948.42
2018-05-23T07:28:46.517Z,948.36
2018-05-23T07:29:46.401Z,948.40
2018-05-23T07:30:46.421Z,948.44
2018-05-23T07:31:46.240Z,948.43
2018-05-23T07:32:46.727Z,948.48
2018-05-23T07:33:46.098Z,948.51
2018-05-23T07:34:45.986Z,948.56
2018-05-23T07:35:46.723Z,948.69
2018-05-23T07:36:45.812Z,949.05
2018-05-23T07:37:46.025Z,949.17
2018-05-23T07:38:45.673Z,949.83
2018-05-23T07:39:45.559Z,949.05
2018-05-23T07:40:45.476Z,948.90
2018-05-23T07:41:45.390Z,950.17
2018-05-23T07:42:45.308Z,949.38
2018-05-23T07:43:45.255Z,949.42
2018-05-23T07:44:45.234Z,949.56
2018-05-23T07:45:45.062Z,949.14
2018-05-23T07:46:44.972Z,949.21
2018-05-23T07:47:44.891Z,948.58
2018-05-23T07:48:45.733Z,948.48
2018-05-23T07:49:44.721Z,948.46
2018-05-23T07:50:44.637Z,948.41
2018-05-23T07:51:44.643Z,948.42
2018-05-23T07:52:44.476Z,948.44
2018-05-23T07:53:44.415Z,948.45
2018-05-23T07:54:44.303Z,948.39
2018-05-23T07:55:44.217Z,948.40
2018-05-23T07:56:44.165Z,948.41
2018-05-23T07:57:44.053Z,948.47
2018-05-23T07:58:43.999Z,948.46
2018-05-23T07:59:43.886Z,948.44
2018-05-23T08:00:43.802Z,948.39
2018-05-23T08:01:43.714Z,948.39
2018-05-23T08:02:43.637Z,948.43
2018-05-23T08:03:43.588Z,948.38
2018-05-23T08:04:43.462Z,948.35
2018-05-23T08:05:43.471Z,948.45
2018-05-23T08:06:43.297Z,948.40
2018-05-23T08:07:43.212Z,948.36
2018-05-23T08:08:43.157Z,948.34
2018-05-23T08:09:43.042Z,948.39
2018-05-23T08:10:42.958Z,948.36
2018-05-23T08:11:42.872Z,948.36
2018-05-23T08:12:42.788Z,948.34
2018-05-23T08:13:42.704Z,948.31
2018-05-23T08:14:42.648Z,948.26
2018-05-23T08:15:42.533Z,948.31
2018-05-23T08:16:43.185Z,948.26
2018-05-23T08:17:42.363Z,948.26
2018-05-23T08:18:42.311Z,948.25
2018-05-23T08:19:43.185Z,948.27
2018-05-23T08:20:42.109Z,948.27
2018-05-23T08:21:42.025Z,948.26
2018-05-23T08:22:41.940Z,948.24
2018-05-23T08:23:41.858Z,948.23
2018-05-23T08:24:41.799Z,948.24
2018-05-23T08:25:41.682Z,948.19
2018-05-23T08:26:41.600Z,948.23
2018-05-23T08:27:41.515Z,948.25
2018-05-23T08:28:41.433Z,948.25
2018-05-23T08:29:41.433Z,948.25
2018-05-23T08:30:41.259Z,948.25
2018-05-23T08:31:41.172Z,948.27
2018-05-23T08:32:41.089Z,948.26
2018-05-23T08:33:41.004Z,948.24
2018-05-23T08:34:40.949Z,948.29
2018-05-23T08:35:40.832Z,948.30
2018-05-23T08:36:40.746Z,948.31
2018-05-23T08:37:40.691Z,948.33
2018-05-23T08:38:40.575Z,948.35
2018-05-23T08:39:40.520Z,948.41
2018-05-23T08:40:40.404Z,948.40
2018-05-23T08:41:40.320Z,948.47
2018-05-23T08:42:40.232Z,948.41
2018-05-23T08:43:40.149Z,948.41
2018-05-23T08:44:40.091Z,948.46
2018-05-23T08:45:39.975Z,948.41
2018-05-23T08:46:39.893Z,948.52
2018-05-23T08:47:39.806Z,948.49
2018-05-23T08:48:39.723Z,948.54
2018-05-23T08:49:39.665Z,948.55
2018-05-23T08:50:39.549Z,948.59
2018-05-23T08:51:39.465Z,948.60
2018-05-23T08:52:39.382Z,948.66
2018-05-23T08:53:39.290Z,948.61
2018-05-23T08:54:39.234Z,948.67
2018-05-23T08:55:39.120Z,948.69
2018-05-23T08:56:39.035Z,948.65
2018-05-23T08:57:38.950Z,948.71
2018-05-23T08:58:38.863Z,948.71
2018-05-23T08:59:38.810Z,948.75
2018-05-23T09:00:38.793Z,948.80
2018-05-23T09:01:38.605Z,948.84
2018-05-23T09:02:38.521Z,948.85
2018-05-23T09:03:38.433Z,948.79
2018-05-23T09:04:38.380Z,948.85
2018-05-23T09:05:38.261Z,948.88
2018-05-23T09:06:38.179Z,948.93
2018-05-23T09:07:38.092Z,949.12
2018-05-23T09:08:38.009Z,949.39
2018-05-23T09:09:37.951Z,949.56
2018-05-23T09:10:37.835Z,949.17
2018-05-23T09:11:37.751Z,949.13
2018-05-23T09:12:37.794Z,949.12
2018-05-23T09:13:37.593Z,949.09
2018-05-23T09:14:37.615Z,949.13
2018-05-23T09:15:37.413Z,949.18
2018-05-23T09:16:37.326Z,949.12
2018-05-23T09:17:37.242Z,949.18
2018-05-23T09:18:37.160Z,949.40
2018-05-23T09:19:37.100Z,949.46
2018-05-23T09:20:36.987Z,949.72
2018-05-23T09:21:37.014Z,950.74
2018-05-23T09:22:36.817Z,950.67
2018-05-23T09:23:36.734Z,950.81
2018-05-23T09:24:36.679Z,951.28
2018-05-23T09:25:37.207Z,951.23
2018-05-23T09:26:37.208Z,950.91
2018-05-23T09:27:36.401Z,951.12
2018-05-23T09:28:36.411Z,950.68
2018-05-23T09:29:36.238Z,949.85
2018-05-23T09:30:36.183Z,950.26
2018-05-23T09:31:36.069Z,949.98
2018-05-23T09:32:36.000Z,950.12
2018-05-23T09:33:35.904Z,950.84
2018-05-23T09:34:35.827Z,950.89
2018-05-23T09:35:35.775Z,950.75
2018-05-23T09:36:35.659Z,950.57
2018-05-23T09:37:35.576Z,950.30
2018-05-23T09:38:35.499Z,951.18
2018-05-23T09:39:35.418Z,950.62
2018-05-23T09:40:35.365Z,950.48
2018-05-23T09:41:35.254Z,950.17
2018-05-23T09:42:35.173Z,949.70
2018-05-23T09:43:35.093Z,949.74
2018-05-23T09:44:35.009Z,949.59
2018-05-23T09:45:34.963Z,950.16
2018-05-23T09:46:34.845Z,949.56
2018-05-23T09:47:34.767Z,949.45
2018-05-23T09:48:34.688Z,949.39
2018-05-23T09:49:34.604Z,949.21
2018-05-23T09:50:34.556Z,949.23
2018-05-23T09:51:34.443Z,949.15
2018-05-23T09:52:34.364Z,949.13
2018-05-23T09:53:34.281Z,949.15
2018-05-23T09:54:34.199Z,949.14
2018-05-23T09:55:34.151Z,949.15
2018-05-23T09:56:34.039Z,949.18
2018-05-23T09:57:33.959Z,949.21
2018-05-23T09:58:33.878Z,949.15
2018-05-23T09:59:33.793Z,949.21
2018-05-23T10:00:33.745Z,949.28
2018-05-23T10:01:33.634Z,949.24
2018-05-23T10:02:33.550Z,949.30
2018-05-23T10:03:34.221Z,949.28
2018-05-23T10:04:33.386Z,949.27
2018-05-23T10:05:33.340Z,949.23
2018-05-23T10:06:33.236Z,949.24
2018-05-23T10:07:33.149Z,949.24
2018-05-23T10:08:33.068Z,949.24
2018-05-23T10:09:32.983Z,949.18
2018-05-23T10:10:32.936Z,949.26
2018-05-23T10:11:32.823Z,949.19
2018-05-23T10:12:32.742Z,949.19
2018-05-23T10:13:32.660Z,949.14
2018-05-23T10:14:32.580Z,949.24
2018-05-23T10:15:32.528Z,949.17
2018-05-23T10:16:32.416Z,949.15
2018-05-23T10:17:32.333Z,949.18
2018-05-23T10:18:32.535Z,949.15
2018-05-23T10:19:32.170Z,949.15
2018-05-23T10:20:32.117Z,949.15
2018-05-23T10:21:32.005Z,949.18
2018-05-23T10:22:31.925Z,949.17
2018-05-23T10:23:31.846Z,949.15
2018-05-23T10:24:31.756Z,949.20
2018-05-23T10:25:31.704Z,949.22
2018-05-23T10:26:31.590Z,949.31
2018-05-23T10:27:31.510Z,949.30
2018-05-23T10:28:31.432Z,949.28
2018-05-23T10:29:31.343Z,949.31
2018-05-23T10:30:31.290Z,949.38
2018-05-23T10:31:31.175Z,949.35
2018-05-23T10:32:31.094Z,949.56
2018-05-23T10:33:31.074Z,949.55
2018-05-23T10:34:30.928Z,949.44
2018-05-23T10:35:30.879Z,949.68
2018-05-23T10:36:30.761Z,949.72
2018-05-23T10:37:30.684Z,949.68
2018-05-23T10:38:30.597Z,949.42
2018-05-23T10:39:31.308Z,949.29
2018-05-23T10:40:30.436Z,949.31
2018-05-23T10:41:30.380Z,949.22
2018-05-23T10:42:30.269Z,949.20
2018-05-23T10:43:30.186Z,949.21
2018-05-23T10:44:30.103Z,949.21
2018-05-23T10:45:30.026Z,949.27
2018-05-23T10:46:29.975Z,949.24
2018-05-23T10:47:29.858Z,949.28
2018-05-23T10:48:29.775Z,949.37
2018-05-23T10:49:29.694Z,949.29
2018-05-23T10:50:29.617Z,949.31
2018-05-23T10:51:29.560Z,949.24
2018-05-23T10:52:29.447Z,949.31
2018-05-23T10:53:29.365Z,949.32
2018-05-23T10:54:29.283Z,949.17
2018-05-23T10:55:29.217Z,949.28
2018-05-23T10:56:29.153Z,949.47
2018-05-23T10:57:29.041Z,949.55
2018-05-23T10:58:28.961Z,949.36
2018-05-23T10:59:28.879Z,949.48
2018-05-23T11:00:28.801Z,949.53
2018-05-23T11:01:28.884Z,949.49
2018-05-23T11:02:28.636Z,949.34
2018-05-23T11:03:28.580Z,949.54
2018-05-23T11:04:28.477Z,949.44
2018-05-23T11:05:28.394Z,949.20
2018-05-23T11:06:28.351Z,949.18
2018-05-23T11:07:28.230Z,949.18
2018-05-23T11:08:28.156Z,949.04
2018-05-23T11:09:28.075Z,949.29
2018-05-23T11:10:27.994Z,949.26
2018-05-23T11:11:27.942Z,949.24
2018-05-23T11:12:27.835Z,949.20
2018-05-23T11:13:27.755Z,948.74
2018-05-23T11:14:27.675Z,948.66
2018-05-23T11:15:27.593Z,949.09
2018-05-23T11:16:27.545Z,948.64
2018-05-23T11:17:27.435Z,948.82
2018-05-23T11:18:27.358Z,949.06
2018-05-23T11:19:27.273Z,949.07
2018-05-23T11:20:27.195Z,949.07
2018-05-23T11:21:27.146Z,948.86
2018-05-23T11:22:27.037Z,948.90
2018-05-23T11:23:26.955Z,948.96
2018-05-23T11:24:27.805Z,948.92
2018-05-23T11:25:26.795Z,948.90
2018-05-23T11:26:26.752Z,948.92
2018-05-23T11:27:26.634Z,948.94
2018-05-23T11:28:26.555Z,948.88
2018-05-23T11:29:26.474Z,948.77
2018-05-23T11:30:26.395Z,948.91
2018-05-23T11:31:26.348Z,948.50
2018-05-23T11:32:26.236Z,948.58
2018-05-23T11:33:26.156Z,948.55
2018-05-23T11:34:26.073Z,948.61
2018-05-23T11:35:25.998Z,948.49
2018-05-23T11:36:25.946Z,948.78
2018-05-23T11:37:25.836Z,948.77
2018-05-23T11:38:25.757Z,948.75
2018-05-23T11:39:25.739Z,948.80
2018-05-23T11:40:26.318Z,948.83
2018-05-23T11:41:25.634Z,948.91
2018-05-23T11:42:25.435Z,948.88
2018-05-23T11:43:25.356Z,948.87
2018-05-23T11:44:25.374Z,948.39
2018-05-23T11:45:25.196Z,948.33
2018-05-23T11:46:25.144Z,948.31
2018-05-23T11:47:25.073Z,948.32
2018-05-23T11:48:24.957Z,948.44
2018-05-23T11:49:24.878Z,948.74
2018-05-23T11:50:24.797Z,948.73
2018-05-23T11:51:24.717Z,948.67
2018-05-23T11:52:24.671Z,948.67
2018-05-23T11:53:24.560Z,948.37
2018-05-23T11:54:24.483Z,948.45
2018-05-23T11:55:24.401Z,948.64
2018-05-23T11:56:24.318Z,948.66
2018-05-23T11:57:24.274Z,948.76
2018-05-23T11:58:24.160Z,948.74
2018-05-23T11:59:24.079Z,948.76
2018-05-23T12:00:23.998Z,948.73
2018-05-23T12:01:24.865Z,948.69
2018-05-23T12:02:24.771Z,948.67
2018-05-23T12:03:23.760Z,948.34
2018-05-23T12:04:23.685Z,948.40
2018-05-23T12:05:23.597Z,948.44
2018-05-23T12:06:23.523Z,948.77
2018-05-23T12:07:23.470Z,948.69
2018-05-23T12:08:23.359Z,948.66
2018-05-23T12:09:23.374Z,948.64
2018-05-23T12:10:23.222Z,948.62
2018-05-23T12:11:23.123Z,948.66
2018-05-23T12:12:23.071Z,948.55
2018-05-23T12:13:22.962Z,948.53
2018-05-23T12:14:22.887Z,948.76
2018-05-23T12:15:22.802Z,948.66
2018-05-23T12:16:22.836Z,948.40
2018-05-23T12:17:22.674Z,948.40
2018-05-23T12:18:22.563Z,948.60
2018-05-23T12:19:22.485Z,948.64
2018-05-23T12:20:22.406Z,948.57
2018-05-23T12:21:23.277Z,948.65
2018-05-23T12:22:23.276Z,948.74
2018-05-23T12:23:22.254Z,948.73
2018-05-23T12:24:22.086Z,948.74
2018-05-23T12:25:22.007Z,948.83
2018-05-23T12:26:21.928Z,948.84
2018-05-23T12:27:21.880Z,948.86